Terminal Aerodrome Forecast
Issued by NWS

Home | Current Version | Previous Version | Text Only | Print | Product List | Glossary On
Versions: 1 2 3 4 5 6 7 8 9 10 11 12 13
000
FTUS46 KSEW 300520
TAFOLM
TAF
KOLM 300520Z 3006/3106 VRB04KT P6SM SCT050 SCT250
      TEMPO 3006/3008 BKN050
     FM301000 00000KT P6SM SKC
     FM301900 03007KT P6SM FEW250
     FM310400 VRB03KT P6SM FEW250=

USA.gov is the U.S. government's official web portal to all federal, state and local government web resources and services.